Browns Summit, North Carolina
Current Conditions -  °F | °C
As of 2:54 AM on Friday 31 Oct 2014 (Local Time) from KGSO Reporting Station
Few Clouds Few Clouds  
Wind Chill: 42°   Ceiling: Unl
Heat Index: 44°   Visibility: 10mi
Dew Point: 39°   Wind: 5mph
Humidity: 82%   Direction: 10°N
Pressure: 29.99"   Gusts: NA
Location:  36.21°N, 79.71°W
Report Text: KGSO 310654Z 01004KT 10SM FEW250 07/04 A2999 RMK AO2 SLP153 T00670039
Loading
Personal Weather Stations






























Interactive Weather Map
Tropical Storm Tracking
New forecast layout! Learn more

10-Day Weather Forecast

Advertisements
Track Severe Weather on mobile